Hlavní strana
METAR-TAF:

METAR-TAF

Letiště :

Kastamonu, Turecko

zeměpisná šířka: 41-19-01N, zeměpisná délka: 33-47-46E, výška: 1073 m

Aktuální stav počasí

Zpráva byla vytvořena před 20 hodinami a 26 minutami, v 04:50 UTC
Západoseverozápadní vítr 2 kt
Teplota 17°C
Vlhkost vzduchu 72%
Tlak 1015 hPa
Viditelnost 10 km a více
Žádná oblačnost pod 1500 m, nevyskytují se cumulonimby.

METAR: LTAL 210450Z 30002KT CAVOK 17/12 Q1015

Čas: 04:16 (01:16 UTC)

Předpověď počasí

Zpráva byla vytvořena před 11 hodinami a 36 minutami, v 13:40 UTC
Předpověď platná od 21 v 15 UTC do 21 v 24 UTC
vítr z různých směrů 2 kt
Viditelnost 10 km a více
Skoro jasno ve výšce 3000 ft

TAF: LTAL 211340Z 2115/2124 VRB02KT 9999 FEW030

Stav a předpovědi počasí z více než 4 000 letišť (zprávy METAR a TAF).

Červené a žluté tečky na mapě představují dostupné meteorologické stanice.

Když kurzor umístíte na tečku, zobrazí se název stanice.

Pak kliknutím zobrazíte stav a předpověď počasí.

Chcete-li změnit mapu, kliknutím na zelené tlačítko se znaménkem +mapu přiblížíte, kliknutím na zelené tlačítko se znaménkem – mapu oddálíte a kliknutím na zelené šipky přejdete na sousední mapy.


METAR-TAF: